createdAt,value
2023-08-20T00:01:28.435Z,7.68
2023-08-20T00:04:05.290Z,9.90
2023-08-20T00:06:39.149Z,6.05
2023-08-20T00:09:10.035Z,7.95
2023-08-20T00:11:40.907Z,6.68
2023-08-20T00:14:11.598Z,7.20
2023-08-20T00:16:44.832Z,6.50
2023-08-20T00:19:18.560Z,6.70
2023-08-20T00:21:50.216Z,8.70
2023-08-20T00:24:21.298Z,7.63
2023-08-20T00:26:52.196Z,6.90
2023-08-20T00:29:22.453Z,6.78
2023-08-20T00:31:52.758Z,8.05
2023-08-20T00:34:28.992Z,9.48
2023-08-20T00:37:02.555Z,8.52
2023-08-20T00:39:32.906Z,9.65
2023-08-20T00:42:03.796Z,8.52
2023-08-20T00:44:35.455Z,7.93
2023-08-20T00:47:13.476Z,10.57
2023-08-20T00:49:47.122Z,7.30
2023-08-20T00:52:22.834Z,8.55
2023-08-20T00:54:54.409Z,8.70
2023-08-20T00:57:27.249Z,9.32
2023-08-20T01:00:01.016Z,7.15
2023-08-20T01:02:31.525Z,7.53
2023-08-20T01:05:12.646Z,8.95
2023-08-20T01:07:53.301Z,8.15
2023-08-20T01:10:32.297Z,8.10
2023-08-20T01:13:08.621Z,8.30
2023-08-20T01:15:39.006Z,9.93
2023-08-20T01:18:12.286Z,8.50
2023-08-20T01:20:56.945Z,6.50
2023-08-20T01:24:00.840Z,7.88
2023-08-20T01:27:11.778Z,6.72
2023-08-20T01:29:47.841Z,7.53
2023-08-20T01:32:21.600Z,9.70
2023-08-20T01:34:52.021Z,9.15
2023-08-20T01:37:23.281Z,8.43
2023-08-20T01:39:53.609Z,7.90
2023-08-20T01:42:23.878Z,6.90
2023-08-20T01:44:58.969Z,8.75
2023-08-20T01:47:29.276Z,7.47
2023-08-20T01:50:00.942Z,7.90
2023-08-20T01:52:31.395Z,7.22
2023-08-20T01:55:02.592Z,7.00
2023-08-20T01:57:40.442Z,8.27
2023-08-20T02:00:27.214Z,8.88
2023-08-20T02:03:00.253Z,9.23
2023-08-20T02:05:30.681Z,7.22
2023-08-20T02:08:00.988Z,9.25
2023-08-20T02:10:31.574Z,8.38
2023-08-20T02:13:01.856Z,7.63
2023-08-20T02:15:35.047Z,9.00
2023-08-20T02:18:05.562Z,6.72
2023-08-20T02:20:36.724Z,9.70
2023-08-20T02:23:07.682Z,7.25
2023-08-20T02:25:39.054Z,9.27
2023-08-20T02:28:09.603Z,8.38
2023-08-20T02:30:47.881Z,8.77
2023-08-20T02:33:18.363Z,7.80
2023-08-20T02:35:48.777Z,6.80
2023-08-20T02:38:24.541Z,10.23
2023-08-20T02:40:57.679Z,8.38
2023-08-20T02:43:27.918Z,7.35
2023-08-20T02:46:00.828Z,9.65
2023-08-20T02:48:32.267Z,8.02
2023-08-20T02:51:02.569Z,7.72
2023-08-20T02:53:33.541Z,7.88
2023-08-20T02:56:06.880Z,9.02
2023-08-20T02:58:37.429Z,7.72
2023-08-20T03:01:10.448Z,9.65
2023-08-20T03:03:43.498Z,7.18
2023-08-20T03:06:13.784Z,9.82
2023-08-20T03:08:47.009Z,7.90
2023-08-20T03:11:19.660Z,8.00
2023-08-20T03:13:52.942Z,7.63
2023-08-20T03:16:25.883Z,8.02
2023-08-20T03:18:56.112Z,7.57
2023-08-20T03:21:26.933Z,8.60
2023-08-20T03:23:57.155Z,8.27
2023-08-20T03:26:27.429Z,9.88
2023-08-20T03:28:57.749Z,11.98
2023-08-20T03:31:33.103Z,6.53
2023-08-20T03:34:05.535Z,7.90
2023-08-20T03:36:35.804Z,8.50
2023-08-20T03:39:06.139Z,7.35
2023-08-20T03:41:36.553Z,9.98
2023-08-20T03:44:07.505Z,8.52
2023-08-20T03:46:40.774Z,7.75
2023-08-20T03:49:11.468Z,9.32
2023-08-20T03:51:42.372Z,8.63
2023-08-20T03:54:17.599Z,9.23
2023-08-20T03:56:48.952Z,8.05
2023-08-20T03:59:19.408Z,8.48
2023-08-20T04:01:52.651Z,8.50
2023-08-20T04:04:23.251Z,7.93
2023-08-20T04:06:55.477Z,8.68
2023-08-20T04:09:26.097Z,9.35
2023-08-20T04:11:56.413Z,8.85
2023-08-20T04:14:26.788Z,7.43
2023-08-20T04:16:59.928Z,7.35
2023-08-20T04:19:30.234Z,9.57
2023-08-20T04:22:00.765Z,8.57
2023-08-20T04:24:31.034Z,7.72
2023-08-20T04:27:01.544Z,8.20
2023-08-20T04:29:38.878Z,8.55
2023-08-20T04:32:12.132Z,7.68
2023-08-20T04:34:42.490Z,7.90
2023-08-20T04:37:12.796Z,7.35
2023-08-20T04:39:45.174Z,7.75
2023-08-20T04:42:15.502Z,8.10
2023-08-20T04:44:51.641Z,6.63
2023-08-20T04:47:24.635Z,7.45
2023-08-20T04:49:55.029Z,7.70
2023-08-20T04:52:28.657Z,7.95
2023-08-20T04:54:59.133Z,6.97
2023-08-20T04:57:29.519Z,6.18
2023-08-20T04:59:59.884Z,7.05
2023-08-20T05:02:32.865Z,6.78
2023-08-20T05:05:03.169Z,7.72
2023-08-20T05:07:33.569Z,7.18
2023-08-20T05:10:03.903Z,8.48
2023-08-20T05:12:34.715Z,7.15
2023-08-20T05:15:06.778Z,8.27
2023-08-20T05:17:40.994Z,8.25
2023-08-20T05:20:19.072Z,6.63
2023-08-20T05:22:49.472Z,6.43
2023-08-20T05:25:17.546Z,5.72
2023-08-20T05:27:50.223Z,4.75
2023-08-20T05:30:20.773Z,7.68
2023-08-20T05:32:53.738Z,6.25
2023-08-20T05:35:26.413Z,6.90
2023-08-20T05:37:56.702Z,5.78
2023-08-20T05:40:27.135Z,5.63
2023-08-20T05:42:57.369Z,5.25
2023-08-20T05:45:30.279Z,6.28
2023-08-20T05:48:05.534Z,7.15
2023-08-20T05:50:35.845Z,6.68
2023-08-20T05:53:09.120Z,6.10
2023-08-20T05:55:40.631Z,4.25
2023-08-20T05:58:11.127Z,4.78
2023-08-20T06:00:44.706Z,5.40
2023-08-20T06:03:17.571Z,7.18
2023-08-20T06:05:51.041Z,5.20
2023-08-20T06:08:24.079Z,5.43
2023-08-20T06:10:55.943Z,5.85
2023-08-20T06:13:26.177Z,7.03
2023-08-20T06:15:56.403Z,5.63
2023-08-20T06:18:29.705Z,4.43
2023-08-20T06:21:00.032Z,4.65
2023-08-20T06:23:43.732Z,5.65
2023-08-20T06:26:20.425Z,5.05
2023-08-20T06:28:53.952Z,5.00
2023-08-20T06:31:24.844Z,4.70
2023-08-20T06:33:57.808Z,4.85
2023-08-20T06:36:28.141Z,4.25
2023-08-20T06:39:05.502Z,4.53
2023-08-20T06:41:38.176Z,5.97
2023-08-20T06:44:11.682Z,5.57
2023-08-20T06:46:44.981Z,4.78
2023-08-20T06:49:18.209Z,5.00
2023-08-20T06:51:48.813Z,5.47
2023-08-20T06:54:19.695Z,6.05
2023-08-20T06:56:51.017Z,3.90
2023-08-20T06:59:21.526Z,4.00
2023-08-20T07:01:51.980Z,5.03
2023-08-20T07:04:25.256Z,5.55
2023-08-20T07:06:55.848Z,6.03
2023-08-20T07:09:26.090Z,4.65
2023-08-20T07:11:56.386Z,5.25
2023-08-20T07:14:27.787Z,5.15
2023-08-20T07:16:58.152Z,4.32
2023-08-20T07:19:30.962Z,5.03
2023-08-20T07:22:04.380Z,4.25
2023-08-20T07:24:37.509Z,6.70
2023-08-20T07:27:12.360Z,5.05
2023-08-20T07:29:42.737Z,4.03
2023-08-20T07:32:13.237Z,4.97
2023-08-20T07:34:46.497Z,4.50
2023-08-20T07:37:17.034Z,4.28
2023-08-20T07:39:49.615Z,5.30
2023-08-20T07:42:20.076Z,4.32
2023-08-20T07:44:51.592Z,9.75
2023-08-20T07:47:21.862Z,4.15
2023-08-20T07:49:54.755Z,4.88
2023-08-20T07:52:27.871Z,4.10
2023-08-20T07:54:58.121Z,6.65
2023-08-20T07:57:28.555Z,5.25
2023-08-20T08:00:01.737Z,4.45
2023-08-20T08:02:32.111Z,5.03
2023-08-20T08:05:05.083Z,5.40
2023-08-20T08:07:35.551Z,5.60
2023-08-20T08:10:05.993Z,5.63
2023-08-20T08:12:36.344Z,5.22
2023-08-20T08:15:09.376Z,6.30
2023-08-20T08:17:39.766Z,4.97
2023-08-20T08:20:15.475Z,4.78
2023-08-20T08:22:46.911Z,4.38
2023-08-20T08:25:18.384Z,5.18
2023-08-20T08:28:00.037Z,4.10
2023-08-20T08:30:31.007Z,4.13
2023-08-20T08:33:02.443Z,4.53
2023-08-20T08:35:37.770Z,5.32
2023-08-20T08:38:08.640Z,4.32
2023-08-20T08:40:39.220Z,4.15
2023-08-20T08:43:15.689Z,4.85
2023-08-20T08:45:49.976Z,4.07
2023-08-20T08:48:21.121Z,5.63
2023-08-20T08:50:55.420Z,4.85
2023-08-20T08:53:31.146Z,5.68
2023-08-20T08:56:01.466Z,4.47
2023-08-20T08:58:31.814Z,4.85
2023-08-20T09:01:02.180Z,3.83
2023-08-20T09:03:32.711Z,3.53
2023-08-20T09:06:12.050Z,4.00
2023-08-20T09:08:42.398Z,4.30
2023-08-20T09:11:12.969Z,4.43
2023-08-20T09:13:46.633Z,4.88
2023-08-20T09:16:19.221Z,4.10
2023-08-20T09:18:50.045Z,5.20
2023-08-20T09:21:23.593Z,3.80
2023-08-20T09:23:53.960Z,3.70
2023-08-20T09:26:26.290Z,3.72
2023-08-20T09:29:00.235Z,5.30
2023-08-20T09:31:44.472Z,5.00
2023-08-20T09:34:17.741Z,5.88
2023-08-20T09:36:50.682Z,4.25
2023-08-20T09:39:21.080Z,4.80
2023-08-20T09:41:53.347Z,4.40
2023-08-20T09:44:27.998Z,3.97
2023-08-20T09:46:59.678Z,4.55
2023-08-20T09:49:36.096Z,4.28
2023-08-20T09:52:11.975Z,4.93
2023-08-20T09:55:04.620Z,4.75
2023-08-20T09:57:39.340Z,4.55
2023-08-20T10:00:13.760Z,5.32
2023-08-20T10:02:45.601Z,4.95
2023-08-20T10:05:16.933Z,7.78
2023-08-20T10:07:55.215Z,5.97
2023-08-20T10:10:25.662Z,4.53
2023-08-20T10:12:58.809Z,4.20
2023-08-20T10:15:34.568Z,4.45
2023-08-20T10:18:08.760Z,4.90
2023-08-20T10:20:39.078Z,4.40
2023-08-20T10:23:26.023Z,4.30
2023-08-20T10:25:58.074Z,4.75
2023-08-20T10:28:31.086Z,4.57
2023-08-20T10:31:13.180Z,6.13
2023-08-20T10:33:54.241Z,5.18
2023-08-20T10:36:29.375Z,4.47
2023-08-20T10:39:10.266Z,4.13
2023-08-20T10:41:40.543Z,5.32
2023-08-20T10:44:12.159Z,3.75
2023-08-20T10:46:54.966Z,4.55
2023-08-20T10:49:27.714Z,4.68
2023-08-20T10:51:58.946Z,5.32
2023-08-20T10:54:32.988Z,5.63
2023-08-20T10:57:05.805Z,4.95
2023-08-20T10:59:38.225Z,5.22
2023-08-20T11:02:18.650Z,5.72
2023-08-20T11:04:51.299Z,4.40
2023-08-20T11:07:26.656Z,4.57
2023-08-20T11:10:08.542Z,4.68
2023-08-20T11:12:43.969Z,4.45
2023-08-20T11:15:18.111Z,3.67
2023-08-20T11:17:52.144Z,3.78
2023-08-20T11:20:25.820Z,3.75
2023-08-20T11:22:59.284Z,3.88
2023-08-20T11:25:35.231Z,5.63
2023-08-20T11:28:05.869Z,7.20
2023-08-20T11:30:39.571Z,4.60
2023-08-20T11:33:12.712Z,5.20
2023-08-20T11:35:45.501Z,3.85
2023-08-20T11:38:18.765Z,5.05
2023-08-20T11:40:51.743Z,7.15
2023-08-20T11:43:22.055Z,4.57
2023-08-20T11:45:53.761Z,5.05
2023-08-20T11:48:29.601Z,3.28
2023-08-20T11:51:02.151Z,4.10
2023-08-20T11:53:33.152Z,4.25
2023-08-20T11:56:06.182Z,3.60
2023-08-20T11:58:36.541Z,3.88
2023-08-20T12:01:12.160Z,5.03
2023-08-20T12:03:45.022Z,5.25
2023-08-20T12:06:24.520Z,6.18
2023-08-20T12:08:59.862Z,6.22
2023-08-20T12:11:38.183Z,5.60
2023-08-20T12:14:11.377Z,4.93
2023-08-20T12:16:42.168Z,4.03
2023-08-20T12:19:15.073Z,4.57
2023-08-20T12:21:46.876Z,4.82
2023-08-20T12:24:18.616Z,4.18
2023-08-20T12:26:51.624Z,4.10
2023-08-20T12:29:24.960Z,3.42
2023-08-20T12:31:55.726Z,6.80
2023-08-20T12:34:27.247Z,5.88
2023-08-20T12:36:57.576Z,4.00
2023-08-20T12:39:30.970Z,5.18
2023-08-20T12:42:09.926Z,5.53
2023-08-20T12:44:40.278Z,3.75
2023-08-20T12:47:13.425Z,4.32
2023-08-20T12:49:46.808Z,6.22
2023-08-20T12:52:19.589Z,4.22
2023-08-20T12:54:54.778Z,4.63
2023-08-20T12:57:27.657Z,3.65
2023-08-20T12:59:57.978Z,4.13
2023-08-20T13:02:29.328Z,3.90
2023-08-20T13:05:00.582Z,4.65
2023-08-20T13:07:37.845Z,4.35
2023-08-20T13:10:10.054Z,3.50
2023-08-20T13:12:45.203Z,6.90
2023-08-20T13:15:20.858Z,4.15
2023-08-20T13:20:29.946Z,6.13
2023-08-20T13:23:02.586Z,3.75
2023-08-20T13:25:35.603Z,5.50
2023-08-20T13:28:09.161Z,6.28
2023-08-20T13:30:39.491Z,5.45
2023-08-20T13:33:12.889Z,3.45
2023-08-20T13:35:47.449Z,5.93
2023-08-20T13:38:20.407Z,4.07
2023-08-20T13:40:53.689Z,3.70
2023-08-20T13:43:27.384Z,3.97
2023-08-20T13:46:00.527Z,5.07
2023-08-20T13:48:31.883Z,4.55
2023-08-20T13:51:07.812Z,7.85
2023-08-20T13:53:42.853Z,5.25
2023-08-20T13:56:15.660Z,4.45
2023-08-20T13:58:48.643Z,4.40
2023-08-20T14:01:19.016Z,6.25
2023-08-20T14:03:49.830Z,4.20
2023-08-20T14:06:23.765Z,5.13
2023-08-20T14:08:54.057Z,4.68
2023-08-20T14:11:24.793Z,5.30
2023-08-20T14:14:07.884Z,5.18
2023-08-20T14:16:38.380Z,3.95
2023-08-20T14:19:11.623Z,6.63
2023-08-20T14:21:44.752Z,3.95
2023-08-20T14:24:15.862Z,4.85
2023-08-20T14:26:47.052Z,4.55
2023-08-20T14:29:45.404Z,5.43
2023-08-20T14:32:16.514Z,6.63
2023-08-20T14:34:46.826Z,5.38
2023-08-20T14:37:17.259Z,5.65
2023-08-20T14:39:50.831Z,5.00
2023-08-20T14:42:27.128Z,6.70
2023-08-20T14:45:00.328Z,5.20
2023-08-20T14:47:35.566Z,5.22
2023-08-20T14:50:09.509Z,4.35
2023-08-20T14:52:40.118Z,4.50
2023-08-20T14:55:14.223Z,4.35
2023-08-20T14:57:52.471Z,7.65
2023-08-20T15:00:29.291Z,5.32
2023-08-20T15:02:59.580Z,8.20
2023-08-20T15:05:31.819Z,4.65
2023-08-20T15:08:05.865Z,5.63
2023-08-20T15:10:36.406Z,5.20
2023-08-20T15:13:07.734Z,6.68
2023-08-20T15:15:40.666Z,4.25
2023-08-20T15:18:13.236Z,4.55
2023-08-20T15:20:46.421Z,7.60
2023-08-20T15:23:19.851Z,4.78
2023-08-20T15:25:51.320Z,5.90
2023-08-20T15:28:21.773Z,5.97
2023-08-20T15:30:55.157Z,5.20
2023-08-20T15:33:29.142Z,6.00
2023-08-20T15:36:02.465Z,6.03
2023-08-20T15:38:32.753Z,6.45
2023-08-20T15:41:03.644Z,3.70
2023-08-20T15:43:34.001Z,7.13
2023-08-20T15:46:09.150Z,4.80
2023-08-20T15:48:42.262Z,7.15
2023-08-20T15:51:12.615Z,4.90
2023-08-20T15:53:45.257Z,6.07
2023-08-20T15:56:15.619Z,4.10
2023-08-20T15:58:45.978Z,6.88
2023-08-20T16:01:19.499Z,3.90
2023-08-20T16:03:52.311Z,7.05
2023-08-20T16:06:27.258Z,5.07
2023-08-20T16:09:00.317Z,5.22
2023-08-20T16:11:31.181Z,4.90
2023-08-20T16:14:01.758Z,4.00
2023-08-20T16:16:37.152Z,5.43
2023-08-20T16:19:07.795Z,5.13
2023-08-20T16:21:40.595Z,5.57
2023-08-20T16:24:13.036Z,5.45
2023-08-20T16:26:43.713Z,5.40
2023-08-20T16:29:21.068Z,5.68
2023-08-20T16:31:53.994Z,4.68
2023-08-20T16:34:27.278Z,4.93
2023-08-20T16:36:57.822Z,4.43
2023-08-20T16:39:35.612Z,4.90
2023-08-20T16:42:15.491Z,4.88
2023-08-20T16:44:51.296Z,5.72
2023-08-20T16:47:29.861Z,8.13
2023-08-20T16:50:03.342Z,4.85
2023-08-20T16:52:36.081Z,5.07
2023-08-20T16:55:14.161Z,5.75
2023-08-20T16:57:44.604Z,5.63
2023-08-20T17:00:24.455Z,6.50
2023-08-20T17:03:00.627Z,5.25
2023-08-20T17:05:32.301Z,8.13
2023-08-20T17:08:04.960Z,7.00
2023-08-20T17:10:37.934Z,5.90
2023-08-20T17:13:08.777Z,4.95
2023-08-20T17:15:39.943Z,5.40
2023-08-20T17:18:22.324Z,6.63
2023-08-20T17:20:52.595Z,4.53
2023-08-20T17:23:26.117Z,5.57
2023-08-20T17:26:03.315Z,5.10
2023-08-20T17:28:34.717Z,5.00
2023-08-20T17:31:07.433Z,8.32
2023-08-20T17:33:44.966Z,4.80
2023-08-20T17:36:16.987Z,5.57
2023-08-20T17:38:48.971Z,6.13
2023-08-20T17:41:22.080Z,4.50
2023-08-20T17:43:56.002Z,5.18
2023-08-20T17:46:26.331Z,6.32
2023-08-20T17:49:00.405Z,6.55
2023-08-20T17:51:33.996Z,6.95
2023-08-20T17:54:05.267Z,6.28
2023-08-20T17:56:36.239Z,6.00
2023-08-20T17:59:08.966Z,6.28
2023-08-20T18:01:39.450Z,6.35
2023-08-20T18:04:15.441Z,7.18
2023-08-20T18:06:46.119Z,8.40
2023-08-20T18:09:16.571Z,6.63
2023-08-20T18:11:47.971Z,5.85
2023-08-20T18:14:24.084Z,7.03
2023-08-20T18:16:57.852Z,5.68
2023-08-20T18:19:30.850Z,7.28
2023-08-20T18:22:03.752Z,9.23
2023-08-20T18:24:35.509Z,7.20
2023-08-20T18:27:09.049Z,5.55
2023-08-20T18:29:42.296Z,7.97
2023-08-20T18:32:12.872Z,6.30
2023-08-20T18:34:50.353Z,6.50
2023-08-20T18:37:21.007Z,6.25
2023-08-20T18:39:51.425Z,7.60
2023-08-20T18:42:24.059Z,6.60
2023-08-20T18:44:54.451Z,6.57
2023-08-20T18:47:26.846Z,7.47
2023-08-20T18:50:03.957Z,5.93
2023-08-20T18:52:34.813Z,6.88
2023-08-20T18:55:06.907Z,5.82
2023-08-20T18:57:44.660Z,7.75
2023-08-20T19:00:19.721Z,8.75
2023-08-20T19:02:51.565Z,7.03
2023-08-20T19:05:24.965Z,7.57
2023-08-20T19:07:55.674Z,7.57
2023-08-20T19:10:28.980Z,7.68
2023-08-20T19:13:01.395Z,6.68
2023-08-20T19:15:34.870Z,6.68
2023-08-20T19:18:07.786Z,7.43
2023-08-20T19:20:50.008Z,7.13
2023-08-20T19:23:21.291Z,7.28
2023-08-20T19:25:52.780Z,9.45
2023-08-20T19:28:25.651Z,9.00
2023-08-20T19:31:00.011Z,7.45
2023-08-20T19:33:34.944Z,8.18
2023-08-20T19:36:08.802Z,7.72
2023-08-20T19:38:41.910Z,7.35
2023-08-20T19:41:13.855Z,7.65
2023-08-20T19:43:45.616Z,7.85
2023-08-20T19:46:16.835Z,6.78
2023-08-20T19:48:47.897Z,7.47
2023-08-20T19:51:21.144Z,8.23
2023-08-20T19:53:51.649Z,6.60
2023-08-20T19:56:22.364Z,5.90
2023-08-20T19:58:54.167Z,8.30
2023-08-20T20:01:30.220Z,6.40
2023-08-20T20:04:02.523Z,6.82
2023-08-20T20:06:36.008Z,7.40
2023-08-20T20:09:07.396Z,6.20
2023-08-20T20:11:40.752Z,7.78
2023-08-20T20:14:11.717Z,7.85
2023-08-20T20:16:42.362Z,8.35
2023-08-20T20:19:14.120Z,9.05
2023-08-20T20:21:50.475Z,6.90
2023-08-20T20:24:20.787Z,7.03
2023-08-20T20:26:53.876Z,6.53
2023-08-20T20:29:27.986Z,7.13
2023-08-20T20:32:06.294Z,7.40
2023-08-20T20:34:39.642Z,6.13
2023-08-20T20:37:12.524Z,7.00
2023-08-20T20:39:42.817Z,7.13
2023-08-20T20:42:13.854Z,6.32
2023-08-20T20:44:52.188Z,6.80
2023-08-20T20:47:22.597Z,8.35
2023-08-20T20:49:53.059Z,5.88
2023-08-20T20:52:28.034Z,5.88
2023-08-20T20:54:58.420Z,5.82
2023-08-20T20:57:31.765Z,6.90
2023-08-20T21:00:02.191Z,6.93
2023-08-20T21:02:36.109Z,6.53
2023-08-20T21:05:07.977Z,6.07
2023-08-20T21:07:47.869Z,8.13
2023-08-20T21:10:20.117Z,6.22
2023-08-20T21:12:58.664Z,8.43
2023-08-20T21:15:29.077Z,6.95
2023-08-20T21:18:00.624Z,6.10
2023-08-20T21:20:31.033Z,6.03
2023-08-20T21:23:05.349Z,7.40
2023-08-20T21:25:38.008Z,7.07
2023-08-20T21:28:11.386Z,8.65
2023-08-20T21:30:45.084Z,7.65
2023-08-20T21:33:18.533Z,5.75
2023-08-20T21:35:53.037Z,7.20
2023-08-20T21:38:37.517Z,8.82
2023-08-20T21:41:08.716Z,7.13
2023-08-20T21:43:47.086Z,6.20
2023-08-20T21:46:20.200Z,8.23
2023-08-20T21:48:57.829Z,10.02
2023-08-20T21:51:29.385Z,8.13
2023-08-20T21:54:04.912Z,6.43
2023-08-20T21:56:35.152Z,7.13
2023-08-20T21:59:09.089Z,7.57
2023-08-20T22:01:46.856Z,7.85
2023-08-20T22:04:17.726Z,7.43
2023-08-20T22:06:47.992Z,6.95
2023-08-20T22:09:22.102Z,7.22
2023-08-20T22:11:57.974Z,8.50
2023-08-20T22:14:29.278Z,7.70
2023-08-20T22:17:06.221Z,8.13
2023-08-20T22:19:38.365Z,7.20
2023-08-20T22:22:10.025Z,7.35
2023-08-20T22:24:42.894Z,6.18
2023-08-20T22:27:13.157Z,6.32
2023-08-20T22:29:46.930Z,6.07
2023-08-20T22:32:19.453Z,7.47
2023-08-20T22:34:56.608Z,6.28
2023-08-20T22:37:27.922Z,5.97
2023-08-20T22:40:03.652Z,6.70
2023-08-20T22:42:39.707Z,7.75
2023-08-20T22:45:13.323Z,7.60
2023-08-20T22:47:48.442Z,6.78
2023-08-20T22:50:20.070Z,8.55
2023-08-20T22:52:53.510Z,6.68
2023-08-20T22:55:26.968Z,8.00
2023-08-20T22:58:06.811Z,7.70
2023-08-20T23:00:37.461Z,9.20
2023-08-20T23:03:10.769Z,8.35
2023-08-20T23:05:42.566Z,7.35
2023-08-20T23:08:15.646Z,8.60
2023-08-20T23:10:48.631Z,7.45
2023-08-20T23:13:18.944Z,7.78
2023-08-20T23:15:51.983Z,7.85
2023-08-20T23:18:22.389Z,7.97
2023-08-20T23:21:06.611Z,8.93
2023-08-20T23:23:38.083Z,7.18
2023-08-20T23:26:11.083Z,7.38
2023-08-20T23:28:41.656Z,7.40
2023-08-20T23:31:15.808Z,8.90
2023-08-20T23:33:46.626Z,7.95
2023-08-20T23:36:18.099Z,6.72
2023-08-20T23:38:51.637Z,6.35
2023-08-20T23:41:24.804Z,7.70
2023-08-20T23:43:55.382Z,6.70
2023-08-20T23:46:37.901Z,8.63
2023-08-20T23:49:16.456Z,7.18
2023-08-20T23:51:48.827Z,10.10
2023-08-20T23:54:22.054Z,8.02
2023-08-20T23:56:55.809Z,8.85
2023-08-20T23:59:31.427Z,7.43
